sensor_id;sensor_type;location;lat;lon;timestamp;pressure;altitude;pressure_sealevel;temperature;humidity
18500;BME280;9379;52.134;11.576;2023-01-27T00:00:36;101584.13;;;4.55;96.02
18500;BME280;9379;52.134;11.576;2023-01-27T00:03:03;101570.97;;;4.55;96.57
18500;BME280;9379;52.134;11.576;2023-01-27T00:05:29;101576.84;;;4.60;96.21
18500;BME280;9379;52.134;11.576;2023-01-27T00:07:56;101578.94;;;4.35;97.27
18500;BME280;9379;52.134;11.576;2023-01-27T00:10:24;101575.28;;;4.75;95.50
18500;BME280;9379;52.134;11.576;2023-01-27T00:12:51;101585.50;;;4.62;96.15
18500;BME280;9379;52.134;11.576;2023-01-27T00:15:36;101576.72;;;4.63;96.22
18500;BME280;9379;52.134;11.576;2023-01-27T00:18:03;101574.44;;;4.75;95.51
18500;BME280;9379;52.134;11.576;2023-01-27T00:20:30;101578.09;;;4.89;94.84
18500;BME280;9379;52.134;11.576;2023-01-27T00:23:16;101577.00;;;4.93;94.48
18500;BME280;9379;52.134;11.576;2023-01-27T00:26:02;101576.84;;;4.96;94.07
18500;BME280;9379;52.134;11.576;2023-01-27T00:28:31;101581.75;;;4.49;96.44
18500;BME280;9379;52.134;11.576;2023-01-27T00:30:59;101574.78;;;4.67;95.98
18500;BME280;9379;52.134;11.576;2023-01-27T00:33:27;101566.38;;;4.78;95.21
18500;BME280;9379;52.134;11.576;2023-01-27T00:35:57;101565.09;;;4.67;95.75
18500;BME280;9379;52.134;11.576;2023-01-27T00:38:25;101560.34;;;4.76;95.73
18500;BME280;9379;52.134;11.576;2023-01-27T00:40:52;101568.44;;;4.71;95.87
18500;BME280;9379;52.134;11.576;2023-01-27T00:43:36;101563.47;;;4.65;96.17
18500;BME280;9379;52.134;11.576;2023-01-27T00:46:04;101568.06;;;4.43;97.80
18500;BME280;9379;52.134;11.576;2023-01-27T00:48:31;101559.59;;;4.36;98.10
18500;BME280;9379;52.134;11.576;2023-01-27T00:50:58;101565.53;;;4.58;97.10
18500;BME280;9379;52.134;11.576;2023-01-27T00:53:25;101568.09;;;4.60;96.86
18500;BME280;9379;52.134;11.576;2023-01-27T00:55:52;101571.63;;;4.42;96.96
18500;BME280;9379;52.134;11.576;2023-01-27T00:58:19;101564.00;;;4.54;96.82
18500;BME280;9379;52.134;11.576;2023-01-27T01:00:48;101568.75;;;4.46;96.79
18500;BME280;9379;52.134;11.576;2023-01-27T01:03:16;101574.88;;;4.28;98.62
18500;BME280;9379;52.134;11.576;2023-01-27T01:05:42;101564.91;;;4.53;97.65
18500;BME280;9379;52.134;11.576;2023-01-27T01:08:09;101571.97;;;4.34;98.63
18500;BME280;9379;52.134;11.576;2023-01-27T01:10:36;101563.34;;;4.49;97.69
18500;BME280;9379;52.134;11.576;2023-01-27T01:13:03;101573.78;;;4.69;96.53
18500;BME280;9379;52.134;11.576;2023-01-27T01:15:34;101579.97;;;4.50;97.77
18500;BME280;9379;52.134;11.576;2023-01-27T01:18:01;101577.97;;;4.74;96.67
18500;BME280;9379;52.134;11.576;2023-01-27T01:20:34;101575.03;;;4.80;96.05
18500;BME280;9379;52.134;11.576;2023-01-27T01:23:01;101579.53;;;4.78;95.91
18500;BME280;9379;52.134;11.576;2023-01-27T01:25:28;101566.53;;;4.56;96.10
18500;BME280;9379;52.134;11.576;2023-01-27T01:27:55;101585.41;;;4.83;95.90
18500;BME280;9379;52.134;11.576;2023-01-27T01:30:22;101583.72;;;4.82;95.62
18500;BME280;9379;52.134;11.576;2023-01-27T01:32:50;101586.16;;;4.86;95.83
18500;BME280;9379;52.134;11.576;2023-01-27T01:35:17;101583.22;;;4.74;96.13
18500;BME280;9379;52.134;11.576;2023-01-27T01:37:46;101577.09;;;4.73;96.53
18500;BME280;9379;52.134;11.576;2023-01-27T01:40:13;101592.56;;;4.62;96.15
18500;BME280;9379;52.134;11.576;2023-01-27T01:42:52;101591.19;;;4.91;95.73
18500;BME280;9379;52.134;11.576;2023-01-27T01:45:48;101591.50;;;4.66;96.23
18500;BME280;9379;52.134;11.576;2023-01-27T01:48:20;101589.22;;;4.77;96.17
18500;BME280;9379;52.134;11.576;2023-01-27T01:50:50;101591.41;;;4.86;96.01
18500;BME280;9379;52.134;11.576;2023-01-27T01:53:20;101594.50;;;4.39;98.26
18500;BME280;9379;52.134;11.576;2023-01-27T01:55:52;101593.22;;;4.67;97.21
18500;BME280;9379;52.134;11.576;2023-01-27T01:58:18;101591.63;;;4.82;96.67
18500;BME280;9379;52.134;11.576;2023-01-27T02:00:46;101600.00;;;4.54;97.45
18500;BME280;9379;52.134;11.576;2023-01-27T02:03:13;101591.00;;;4.77;96.56
18500;BME280;9379;52.134;11.576;2023-01-27T02:05:42;101599.25;;;4.69;97.18
18500;BME280;9379;52.134;11.576;2023-01-27T02:08:13;101598.75;;;4.80;96.74
18500;BME280;9379;52.134;11.576;2023-01-27T02:10:43;101610.72;;;4.68;97.28
18500;BME280;9379;52.134;11.576;2023-01-27T02:13:10;101603.97;;;4.44;98.26
18500;BME280;9379;52.134;11.576;2023-01-27T02:15:37;101605.25;;;4.54;97.73
18500;BME280;9379;52.134;11.576;2023-01-27T02:18:06;101612.34;;;4.71;97.57
18500;BME280;9379;52.134;11.576;2023-01-27T02:20:38;101598.50;;;4.84;96.43
18500;BME280;9379;52.134;11.576;2023-01-27T02:23:16;101598.59;;;4.83;96.31
18500;BME280;9379;52.134;11.576;2023-01-27T02:25:52;101606.81;;;4.58;98.03
18500;BME280;9379;52.134;11.576;2023-01-27T02:28:20;101612.47;;;4.86;96.48
18500;BME280;9379;52.134;11.576;2023-01-27T02:30:47;101611.66;;;4.67;96.89
18500;BME280;9379;52.134;11.576;2023-01-27T02:33:15;101618.41;;;4.54;98.36
18500;BME280;9379;52.134;11.576;2023-01-27T02:35:45;101610.94;;;4.63;97.53
18500;BME280;9379;52.134;11.576;2023-01-27T02:38:14;101607.50;;;4.80;96.99
18500;BME280;9379;52.134;11.576;2023-01-27T02:40:43;101621.94;;;4.72;97.34
18500;BME280;9379;52.134;11.576;2023-01-27T02:43:12;101622.56;;;4.95;96.44
18500;BME280;9379;52.134;11.576;2023-01-27T02:45:38;101619.47;;;4.87;96.20
18500;BME280;9379;52.134;11.576;2023-01-27T02:48:05;101619.16;;;4.93;95.76
18500;BME280;9379;52.134;11.576;2023-01-27T02:50:32;101629.84;;;5.08;95.57
18500;BME280;9379;52.134;11.576;2023-01-27T02:52:59;101626.69;;;5.01;95.74
18500;BME280;9379;52.134;11.576;2023-01-27T02:55:25;101625.25;;;4.94;95.63
18500;BME280;9379;52.134;11.576;2023-01-27T02:57:52;101627.56;;;4.83;96.38
18500;BME280;9379;52.134;11.576;2023-01-27T03:00:20;101605.88;;;4.59;97.02
18500;BME280;9379;52.134;11.576;2023-01-27T03:02:47;101634.91;;;4.76;97.33
18500;BME280;9379;52.134;11.576;2023-01-27T03:05:14;101633.75;;;4.63;97.53
18500;BME280;9379;52.134;11.576;2023-01-27T03:07:41;101638.81;;;4.49;98.49
18500;BME280;9379;52.134;11.576;2023-01-27T03:10:09;101635.00;;;4.56;98.48
18500;BME280;9379;52.134;11.576;2023-01-27T03:12:35;101629.78;;;4.73;97.51
18500;BME280;9379;52.134;11.576;2023-01-27T03:15:03;101634.88;;;4.95;96.72
18500;BME280;9379;52.134;11.576;2023-01-27T03:17:49;101631.34;;;4.77;96.75
18500;BME280;9379;52.134;11.576;2023-01-27T03:20:33;101630.16;;;4.65;97.16
18500;BME280;9379;52.134;11.576;2023-01-27T03:23:00;101633.28;;;4.36;98.97
18500;BME280;9379;52.134;11.576;2023-01-27T03:25:26;101629.91;;;4.51;98.15
18500;BME280;9379;52.134;11.576;2023-01-27T03:27:53;101631.97;;;4.82;97.10
18500;BME280;9379;52.134;11.576;2023-01-27T03:30:20;101634.91;;;4.76;96.61
18500;BME280;9379;52.134;11.576;2023-01-27T03:32:46;101629.84;;;4.90;96.44
18500;BME280;9379;52.134;11.576;2023-01-27T03:35:15;101618.81;;;4.82;95.85
18500;BME280;9379;52.134;11.576;2023-01-27T03:37:42;101643.44;;;4.81;96.41
18500;BME280;9379;52.134;11.576;2023-01-27T03:40:27;101624.84;;;4.84;95.64
18500;BME280;9379;52.134;11.576;2023-01-27T03:43:11;101645.34;;;4.96;95.97
18500;BME280;9379;52.134;11.576;2023-01-27T03:45:55;101642.00;;;4.93;95.92
18500;BME280;9379;52.134;11.576;2023-01-27T03:48:41;101635.53;;;4.62;97.47
18500;BME280;9379;52.134;11.576;2023-01-27T03:51:10;101645.56;;;4.73;97.41
18500;BME280;9379;52.134;11.576;2023-01-27T03:53:37;101642.16;;;4.90;96.38
18500;BME280;9379;52.134;11.576;2023-01-27T03:56:04;101638.56;;;4.55;97.40
18500;BME280;9379;52.134;11.576;2023-01-27T03:58:32;101638.72;;;4.52;98.23
18500;BME280;9379;52.134;11.576;2023-01-27T04:01:01;101641.88;;;4.77;96.73
18500;BME280;9379;52.134;11.576;2023-01-27T04:03:30;101625.53;;;4.52;96.98
18500;BME280;9379;52.134;11.576;2023-01-27T04:06:17;101644.16;;;4.66;97.36
18500;BME280;9379;52.134;11.576;2023-01-27T04:09:03;101644.09;;;4.86;96.75
18500;BME280;9379;52.134;11.576;2023-01-27T04:11:30;101636.88;;;4.90;95.93
18500;BME280;9379;52.134;11.576;2023-01-27T04:14:15;101637.59;;;4.93;95.92
18500;BME280;9379;52.134;11.576;2023-01-27T04:16:42;101637.41;;;4.79;96.50
18500;BME280;9379;52.134;11.576;2023-01-27T04:19:10;101646.00;;;4.83;96.87
18500;BME280;9379;52.134;11.576;2023-01-27T04:21:39;101645.94;;;4.47;98.38
18500;BME280;9379;52.134;11.576;2023-01-27T04:24:06;101646.66;;;4.69;97.89
18500;BME280;9379;52.134;11.576;2023-01-27T04:26:42;101650.00;;;4.73;98.05
18500;BME280;9379;52.134;11.576;2023-01-27T04:29:10;101647.28;;;4.36;98.69
18500;BME280;9379;52.134;11.576;2023-01-27T04:31:38;101651.91;;;4.50;98.47
18500;BME280;9379;52.134;11.576;2023-01-27T04:34:04;101655.06;;;4.77;97.49
18500;BME280;9379;52.134;11.576;2023-01-27T04:36:31;101650.63;;;4.59;98.47
18500;BME280;9379;52.134;11.576;2023-01-27T04:39:00;101654.06;;;4.61;98.38
18500;BME280;9379;52.134;11.576;2023-01-27T04:41:27;101659.81;;;4.69;98.29
18500;BME280;9379;52.134;11.576;2023-01-27T04:43:54;101646.22;;;4.59;97.95
18500;BME280;9379;52.134;11.576;2023-01-27T04:46:21;101661.53;;;4.70;98.17
18500;BME280;9379;52.134;11.576;2023-01-27T04:48:47;101663.38;;;4.68;97.97
18500;BME280;9379;52.134;11.576;2023-01-27T04:51:14;101668.41;;;4.73;98.21
18500;BME280;9379;52.134;11.576;2023-01-27T04:53:41;101671.13;;;4.90;97.26
18500;BME280;9379;52.134;11.576;2023-01-27T04:56:22;101672.84;;;4.91;96.79
18500;BME280;9379;52.134;11.576;2023-01-27T04:58:50;101670.63;;;5.01;96.48
18500;BME280;9379;52.134;11.576;2023-01-27T05:01:17;101679.63;;;4.78;98.09
18500;BME280;9379;52.134;11.576;2023-01-27T05:03:43;101680.66;;;4.92;97.08
18500;BME280;9379;52.134;11.576;2023-01-27T05:06:11;101677.69;;;5.17;95.59
18500;BME280;9379;52.134;11.576;2023-01-27T05:08:38;101686.56;;;4.97;96.88
18500;BME280;9379;52.134;11.576;2023-01-27T05:11:05;101682.47;;;5.09;95.70
18500;BME280;9379;52.134;11.576;2023-01-27T05:13:33;101686.44;;;4.82;96.86
18500;BME280;9379;52.134;11.576;2023-01-27T05:16:06;101690.06;;;4.98;96.49
18500;BME280;9379;52.134;11.576;2023-01-27T05:18:33;101691.28;;;5.27;95.54
18500;BME280;9379;52.134;11.576;2023-01-27T05:21:04;101691.97;;;5.13;95.60
18500;BME280;9379;52.134;11.576;2023-01-27T05:23:31;101687.97;;;5.23;95.28
18500;BME280;9379;52.134;11.576;2023-01-27T05:26:07;101694.19;;;5.04;96.63
18500;BME280;9379;52.134;11.576;2023-01-27T05:28:36;101703.88;;;5.03;96.48
18500;BME280;9379;52.134;11.576;2023-01-27T05:31:05;101696.81;;;5.04;96.14
18500;BME280;9379;52.134;11.576;2023-01-27T05:33:32;101704.91;;;5.18;95.61
18500;BME280;9379;52.134;11.576;2023-01-27T05:36:00;101696.47;;;5.11;95.26
18500;BME280;9379;52.134;11.576;2023-01-27T05:38:27;101705.16;;;4.94;97.06
18500;BME280;9379;52.134;11.576;2023-01-27T05:40:56;101713.69;;;4.81;98.05
18500;BME280;9379;52.134;11.576;2023-01-27T05:43:25;101721.81;;;4.95;97.25
18500;BME280;9379;52.134;11.576;2023-01-27T05:46:00;101725.59;;;4.89;96.83
18500;BME280;9379;52.134;11.576;2023-01-27T05:48:27;101722.22;;;5.05;96.38
18500;BME280;9379;52.134;11.576;2023-01-27T05:50:55;101725.56;;;4.71;97.82
18500;BME280;9379;52.134;11.576;2023-01-27T05:53:22;101719.69;;;5.03;97.17
18500;BME280;9379;52.134;11.576;2023-01-27T05:55:49;101724.94;;;5.03;96.86
18500;BME280;9379;52.134;11.576;2023-01-27T05:58:16;101731.06;;;5.22;95.90
18500;BME280;9379;52.134;11.576;2023-01-27T06:00:43;101706.84;;;5.14;95.63
18500;BME280;9379;52.134;11.576;2023-01-27T06:03:12;101729.75;;;5.31;95.02
18500;BME280;9379;52.134;11.576;2023-01-27T06:05:39;101720.94;;;5.13;96.24
18500;BME280;9379;52.134;11.576;2023-01-27T06:08:14;101729.56;;;5.17;96.03
18500;BME280;9379;52.134;11.576;2023-01-27T06:10:40;101724.47;;;5.31;95.60
18500;BME280;9379;52.134;11.576;2023-01-27T06:13:07;101729.69;;;5.33;95.25
18500;BME280;9379;52.134;11.576;2023-01-27T06:15:34;101730.22;;;5.39;94.66
18500;BME280;9379;52.134;11.576;2023-01-27T06:18:01;101720.53;;;5.22;95.67
18500;BME280;9379;52.134;11.576;2023-01-27T06:20:29;101732.44;;;5.12;96.11
18500;BME280;9379;52.134;11.576;2023-01-27T06:22:56;101732.47;;;5.30;95.68
18500;BME280;9379;52.134;11.576;2023-01-27T06:25:23;101731.06;;;5.22;95.60
18500;BME280;9379;52.134;11.576;2023-01-27T06:27:53;101743.84;;;5.30;95.76
18500;BME280;9379;52.134;11.576;2023-01-27T06:30:20;101736.94;;;5.27;95.71
18500;BME280;9379;52.134;11.576;2023-01-27T06:32:47;101739.31;;;5.15;96.35
18500;BME280;9379;52.134;11.576;2023-01-27T06:35:14;101744.00;;;5.27;96.29
18500;BME280;9379;52.134;11.576;2023-01-27T06:37:42;101737.97;;;5.06;96.64
18500;BME280;9379;52.134;11.576;2023-01-27T06:40:10;101747.97;;;5.00;97.51
18500;BME280;9379;52.134;11.576;2023-01-27T06:42:36;101749.63;;;5.19;97.11
18500;BME280;9379;52.134;11.576;2023-01-27T06:45:04;101738.50;;;5.32;96.37
18500;BME280;9379;52.134;11.576;2023-01-27T06:47:31;101751.47;;;5.36;96.22
18500;BME280;9379;52.134;11.576;2023-01-27T06:49:58;101751.56;;;5.16;96.48
18500;BME280;9379;52.134;11.576;2023-01-27T06:52:25;101737.31;;;5.20;96.63
18500;BME280;9379;52.134;11.576;2023-01-27T06:54:53;101745.81;;;5.44;94.94
18500;BME280;9379;52.134;11.576;2023-01-27T06:57:19;101751.91;;;5.46;94.72
18500;BME280;9379;52.134;11.576;2023-01-27T06:59:46;101748.84;;;5.36;95.70
18500;BME280;9379;52.134;11.576;2023-01-27T07:02:13;101755.16;;;5.51;95.16
18500;BME280;9379;52.134;11.576;2023-01-27T07:04:40;101766.63;;;5.50;95.48
18500;BME280;9379;52.134;11.576;2023-01-27T07:07:06;101767.38;;;5.35;95.83
18500;BME280;9379;52.134;11.576;2023-01-27T07:09:33;101769.34;;;5.48;95.70
18500;BME280;9379;52.134;11.576;2023-01-27T07:12:01;101773.00;;;5.46;95.63
18500;BME280;9379;52.134;11.576;2023-01-27T07:14:28;101779.53;;;5.56;95.42
18500;BME280;9379;52.134;11.576;2023-01-27T07:16:55;101779.91;;;5.48;95.40
18500;BME280;9379;52.134;11.576;2023-01-27T07:19:22;101770.44;;;5.25;97.21
18500;BME280;9379;52.134;11.576;2023-01-27T07:21:49;101775.63;;;5.27;96.80
18500;BME280;9379;52.134;11.576;2023-01-27T07:24:15;101779.97;;;5.47;96.22
18500;BME280;9379;52.134;11.576;2023-01-27T07:26:43;101777.94;;;5.52;95.49
18500;BME280;9379;52.134;11.576;2023-01-27T07:29:13;101776.75;;;5.59;95.23
18500;BME280;9379;52.134;11.576;2023-01-27T07:31:40;101777.28;;;5.66;94.47
18500;BME280;9379;52.134;11.576;2023-01-27T07:34:06;101772.66;;;5.71;94.43
18500;BME280;9379;52.134;11.576;2023-01-27T07:36:33;101776.91;;;5.73;94.42
18500;BME280;9379;52.134;11.576;2023-01-27T07:39:00;101781.50;;;5.70;94.49
18500;BME280;9379;52.134;11.576;2023-01-27T07:41:27;101781.63;;;5.67;95.16
18500;BME280;9379;52.134;11.576;2023-01-27T07:43:53;101783.69;;;5.24;97.25
18500;BME280;9379;52.134;11.576;2023-01-27T07:46:21;101783.63;;;5.44;96.51
18500;BME280;9379;52.134;11.576;2023-01-27T07:48:48;101776.69;;;5.42;97.11
18500;BME280;9379;52.134;11.576;2023-01-27T07:51:15;101782.28;;;5.53;96.50
18500;BME280;9379;52.134;11.576;2023-01-27T07:53:42;101785.44;;;5.61;96.21
18500;BME280;9379;52.134;11.576;2023-01-27T07:56:08;101788.75;;;5.65;96.13
18500;BME280;9379;52.134;11.576;2023-01-27T07:58:36;101777.59;;;5.77;95.40
18500;BME280;9379;52.134;11.576;2023-01-27T08:01:05;101779.72;;;5.51;96.65
18500;BME280;9379;52.134;11.576;2023-01-27T08:03:33;101785.06;;;5.69;96.25
18500;BME280;9379;52.134;11.576;2023-01-27T11:44:43;101847.00;;;5.41;100.00
18500;BME280;9379;52.134;11.576;2023-01-27T11:47:19;101862.72;;;5.44;100.00
18500;BME280;9379;52.134;11.576;2023-01-27T11:49:49;101858.06;;;5.49;100.00
18500;BME280;9379;52.134;11.576;2023-01-27T11:52:19;101849.13;;;5.71;100.00
18500;BME280;9379;52.134;11.576;2023-01-27T11:54:50;101849.09;;;5.35;100.00
18500;BME280;9379;52.134;11.576;2023-01-27T11:57:20;101854.84;;;5.62;100.00
18500;BME280;9379;52.134;11.576;2023-01-27T11:59:52;101843.03;;;5.14;100.00
18500;BME280;9379;52.134;11.576;2023-01-27T12:02:26;101853.28;;;5.57;100.00
18500;BME280;9379;52.134;11.576;2023-01-27T12:05:00;101853.22;;;5.59;100.00
18500;BME280;9379;52.134;11.576;2023-01-27T12:07:37;101852.81;;;5.67;100.00
18500;BME280;9379;52.134;11.576;2023-01-27T12:10:22;101851.09;;;5.48;100.00
18500;BME280;9379;52.134;11.576;2023-01-27T12:12:50;101849.06;;;5.53;100.00
18500;BME280;9379;52.134;11.576;2023-01-27T12:15:19;101847.66;;;5.46;100.00
18500;BME280;9379;52.134;11.576;2023-01-27T12:17:48;101850.84;;;5.53;100.00
18500;BME280;9379;52.134;11.576;2023-01-27T12:20:33;101844.25;;;5.44;100.00
18500;BME280;9379;52.134;11.576;2023-01-27T12:23:05;101848.72;;;5.80;100.00
18500;BME280;9379;52.134;11.576;2023-01-27T12:25:43;101835.63;;;5.77;100.00
18500;BME280;9379;52.134;11.576;2023-01-27T12:28:23;101847.00;;;5.41;100.00
18500;BME280;9379;52.134;11.576;2023-01-27T12:30:56;101850.72;;;5.37;100.00
18500;BME280;9379;52.134;11.576;2023-01-27T12:33:29;101844.09;;;5.47;100.00
18500;BME280;9379;52.134;11.576;2023-01-27T12:35:59;101856.28;;;5.31;100.00
18500;BME280;9379;52.134;11.576;2023-01-27T12:38:28;101842.03;;;5.16;100.00
18500;BME280;9379;52.134;11.576;2023-01-27T12:41:02;101847.28;;;5.16;100.00
18500;BME280;9379;52.134;11.576;2023-01-27T12:43:30;101857.47;;;5.62;100.00
18500;BME280;9379;52.134;11.576;2023-01-27T12:46:17;101838.28;;;5.22;100.00
18500;BME280;9379;52.134;11.576;2023-01-27T12:48:46;101844.72;;;5.52;100.00
18500;BME280;9379;52.134;11.576;2023-01-27T12:51:18;101858.75;;;5.53;100.00
18500;BME280;9379;52.134;11.576;2023-01-27T12:53:47;101855.84;;;5.59;100.00
18500;BME280;9379;52.134;11.576;2023-01-27T12:56:15;101857.22;;;5.49;100.00
18500;BME280;9379;52.134;11.576;2023-01-27T12:58:44;101852.22;;;5.62;100.00
18500;BME280;9379;52.134;11.576;2023-01-27T13:01:23;101854.84;;;5.62;100.00
18500;BME280;9379;52.134;11.576;2023-01-27T13:03:53;101854.16;;;5.39;100.00
18500;BME280;9379;52.134;11.576;2023-01-27T13:06:29;101846.38;;;5.36;100.00
18500;BME280;9379;52.134;11.576;2023-01-27T13:08:59;101854.50;;;5.13;100.00
18500;BME280;9379;52.134;11.576;2023-01-27T13:11:33;101859.72;;;5.33;100.00
18500;BME280;9379;52.134;11.576;2023-01-27T13:14:06;101846.06;;;5.05;100.00
18500;BME280;9379;52.134;11.576;2023-01-27T13:16:36;101859.16;;;5.45;100.00
18500;BME280;9379;52.134;11.576;2023-01-27T13:19:15;101861.91;;;5.42;100.00
18500;BME280;9379;52.134;11.576;2023-01-27T13:21:43;101853.91;;;5.44;100.00
18500;BME280;9379;52.134;11.576;2023-01-27T13:24:17;101850.06;;;5.13;100.00
18500;BME280;9379;52.134;11.576;2023-01-27T13:26:48;101851.13;;;5.09;100.00
18500;BME280;9379;52.134;11.576;2023-01-27T13:29:19;101840.81;;;5.05;100.00
18500;BME280;9379;52.134;11.576;2023-01-27T13:31:53;101851.22;;;5.26;100.00
18500;BME280;9379;52.134;11.576;2023-01-27T13:34:27;101856.06;;;5.17;100.00
18500;BME280;9379;52.134;11.576;2023-01-27T13:37:00;101870.88;;;4.80;100.00
18500;BME280;9379;52.134;11.576;2023-01-27T13:39:42;101856.19;;;5.14;100.00
18500;BME280;9379;52.134;11.576;2023-01-27T13:42:16;101845.47;;;5.37;100.00
18500;BME280;9379;52.134;11.576;2023-01-27T13:44:48;101878.66;;;5.22;100.00
18500;BME280;9379;52.134;11.576;2023-01-27T13:47:22;101876.25;;;4.97;100.00
18500;BME280;9379;52.134;11.576;2023-01-27T13:49:53;101881.47;;;4.99;100.00
18500;BME280;9379;52.134;11.576;2023-01-27T13:52:23;101870.44;;;5.10;100.00
18500;BME280;9379;52.134;11.576;2023-01-27T13:54:50;101880.66;;;4.97;100.00
18500;BME280;9379;52.134;11.576;2023-01-27T13:57:48;101879.50;;;5.23;100.00
18500;BME280;9379;52.134;11.576;2023-01-27T14:00:20;101883.13;;;5.39;100.00
18500;BME280;9379;52.134;11.576;2023-01-27T14:03:13;101886.75;;;5.18;100.00
18500;BME280;9379;52.134;11.576;2023-01-27T14:05:57;101886.56;;;5.22;100.00
18500;BME280;9379;52.134;11.576;2023-01-27T14:08:48;101888.59;;;5.16;100.00
18500;BME280;9379;52.134;11.576;2023-01-27T14:11:28;101891.94;;;5.19;100.00
18500;BME280;9379;52.134;11.576;2023-01-27T14:14:05;101892.94;;;5.17;100.00
18500;BME280;9379;52.134;11.576;2023-01-27T14:16:38;101896.25;;;5.41;100.00
18500;BME280;9379;52.134;11.576;2023-01-27T14:19:22;101899.31;;;5.32;100.00
18500;BME280;9379;52.134;11.576;2023-01-27T14:21:56;101903.34;;;5.20;100.00
18500;BME280;9379;52.134;11.576;2023-01-27T14:24:32;101904.72;;;5.10;100.00
18500;BME280;9379;52.134;11.576;2023-01-27T14:27:03;101905.38;;;4.94;100.00
18500;BME280;9379;52.134;11.576;2023-01-27T14:29:39;101909.16;;;5.08;100.00
18500;BME280;9379;52.134;11.576;2023-01-27T14:32:17;101906.03;;;4.79;100.00
18500;BME280;9379;52.134;11.576;2023-01-27T14:35:07;101906.13;;;5.17;100.00
18500;BME280;9379;52.134;11.576;2023-01-27T14:37:50;101905.50;;;5.12;100.00
18500;BME280;9379;52.134;11.576;2023-01-27T14:40:22;101907.34;;;4.89;100.00
18500;BME280;9379;52.134;11.576;2023-01-27T14:43:03;101907.94;;;4.96;100.00
18500;BME280;9379;52.134;11.576;2023-01-27T14:45:35;101903.09;;;5.26;100.00
18500;BME280;9379;52.134;11.576;2023-01-27T14:48:09;101901.19;;;5.48;100.00
18500;BME280;9379;52.134;11.576;2023-01-27T14:50:47;101913.06;;;5.38;100.00
18500;BME280;9379;52.134;11.576;2023-01-27T14:53:40;101912.72;;;5.46;100.00
18500;BME280;9379;52.134;11.576;2023-01-27T14:56:16;101920.53;;;5.28;100.00
18500;BME280;9379;52.134;11.576;2023-01-27T14:58:54;101919.59;;;5.30;100.00
18500;BME280;9379;52.134;11.576;2023-01-27T15:01:30;101924.84;;;5.50;100.00
18500;BME280;9379;52.134;11.576;2023-01-27T15:07:02;101926.31;;;5.55;100.00
18500;BME280;9379;52.134;11.576;2023-01-27T15:09:39;101933.16;;;5.41;100.00
18500;BME280;9379;52.134;11.576;2023-01-27T15:12:25;101937.22;;;5.09;100.00
18500;BME280;9379;52.134;11.576;2023-01-27T15:15:18;101945.78;;;5.34;100.00
18500;BME280;9379;52.134;11.576;2023-01-27T15:18:00;101943.88;;;5.56;99.69
18500;BME280;9379;52.134;11.576;2023-01-27T15:20:56;101948.53;;;5.70;99.22
18500;BME280;9379;52.134;11.576;2023-01-27T15:23:53;101957.03;;;5.38;99.16
18500;BME280;9379;52.134;11.576;2023-01-27T15:26:22;101957.09;;;5.36;99.90
18500;BME280;9379;52.134;11.576;2023-01-27T15:28:50;101964.56;;;5.06;100.00
18500;BME280;9379;52.134;11.576;2023-01-27T15:31:23;101968.06;;;5.27;99.60
18500;BME280;9379;52.134;11.576;2023-01-27T15:33:53;101961.44;;;5.37;99.05
18500;BME280;9379;52.134;11.576;2023-01-27T15:36:29;101966.78;;;5.36;98.88
18500;BME280;9379;52.134;11.576;2023-01-27T15:39:16;101964.34;;;5.31;99.11
18500;BME280;9379;52.134;11.576;2023-01-27T15:42:08;101970.53;;;5.30;97.86
18500;BME280;9379;52.134;11.576;2023-01-27T15:44:40;101969.22;;;5.40;98.24
18500;BME280;9379;52.134;11.576;2023-01-27T15:47:12;101967.13;;;5.28;98.10
18500;BME280;9379;52.134;11.576;2023-01-27T15:49:43;101964.91;;;5.58;97.77
18500;BME280;9379;52.134;11.576;2023-01-27T15:52:24;101959.91;;;5.90;95.97
18500;BME280;9379;52.134;11.576;2023-01-27T15:54:57;101969.97;;;5.63;95.91
18500;BME280;9379;52.134;11.576;2023-01-27T15:57:27;101962.34;;;5.56;96.89
18500;BME280;9379;52.134;11.576;2023-01-27T16:00:00;101967.25;;;5.64;96.18
18500;BME280;9379;52.134;11.576;2023-01-27T16:02:29;101972.53;;;5.45;96.60
18500;BME280;9379;52.134;11.576;2023-01-27T16:05:04;101961.41;;;5.76;96.33
18500;BME280;9379;52.134;11.576;2023-01-27T16:07:34;101970.09;;;5.60;95.28
18500;BME280;9379;52.134;11.576;2023-01-27T16:10:07;101973.75;;;5.76;95.29
18500;BME280;9379;52.134;11.576;2023-01-27T16:12:40;101971.59;;;5.65;95.85
18500;BME280;9379;52.134;11.576;2023-01-27T16:15:19;101977.03;;;5.62;95.68
18500;BME280;9379;52.134;11.576;2023-01-27T16:18:00;101968.66;;;5.92;94.14
18500;BME280;9379;52.134;11.576;2023-01-27T16:20:30;101970.34;;;6.11;93.68
18500;BME280;9379;52.134;11.576;2023-01-27T16:22:59;101971.34;;;5.90;94.60
18500;BME280;9379;52.134;11.576;2023-01-27T16:25:38;101970.84;;;5.82;94.72
18500;BME280;9379;52.134;11.576;2023-01-27T16:28:12;101965.88;;;5.55;94.86
18500;BME280;9379;52.134;11.576;2023-01-27T16:30:45;101979.31;;;5.89;94.71
18500;BME280;9379;52.134;11.576;2023-01-27T16:33:17;101975.19;;;5.83;94.82
18500;BME280;9379;52.134;11.576;2023-01-27T16:35:50;101977.03;;;5.81;94.59
18500;BME280;9379;52.134;11.576;2023-01-27T16:38:22;101980.25;;;5.69;95.45
18500;BME280;9379;52.134;11.576;2023-01-27T16:40:53;101989.34;;;5.62;94.02
18500;BME280;9379;52.134;11.576;2023-01-27T16:43:23;101980.66;;;5.78;94.79
18500;BME280;9379;52.134;11.576;2023-01-27T16:45:53;101994.41;;;5.66;94.14
18500;BME280;9379;52.134;11.576;2023-01-27T16:48:26;101998.16;;;5.81;93.61
18500;BME280;9379;52.134;11.576;2023-01-27T16:50:55;102007.97;;;5.77;93.41
18500;BME280;9379;52.134;11.576;2023-01-27T16:53:31;102002.00;;;5.53;93.09
18500;BME280;9379;52.134;11.576;2023-01-27T16:56:05;102006.31;;;5.56;93.24
18500;BME280;9379;52.134;11.576;2023-01-27T16:58:34;102001.69;;;5.61;92.20
18500;BME280;9379;52.134;11.576;2023-01-27T17:01:01;102010.16;;;5.49;92.33